This is the latest recevied weather packets stored in our database for station/object K7SKM. If no packets are shown the sender has not sent any weather packets the latest 10 day(s).
| Time | Temp. | Humidity | Pressure | Rain* | Wind** | Luminosity | Snow |
|---|---|---|---|---|---|---|---|
| 1787509619 | 22.78° C | 55% | 1025.6 hPa | 0 mm | - | 197 W/m² | - |
| 1787509316 | 22.22° C | 58% | 1025.4 hPa | 0 mm | - | 319 W/m² | - |
| 1787509015 | 22.78° C | 57% | 1025.4 hPa | 0 mm | - | 212 W/m² | - |
| 1787508712 | 22.22° C | 60% | 1025.4 hPa | 0 mm | - | 370 W/m² | - |
| 1787508406 | 20.56° C | 62% | 1025.3 hPa | 0 mm | - | 386 W/m² | - |
| 1787508103 | 21.11° C | 63% | 1025.4 hPa | 0 mm | - | 152 W/m² | - |
| 1787507799 | 20° C | 64% | 1025.5 hPa | 0 mm | - | 136 W/m² | - |
| 1787507494 | 20.56° C | 62% | 1025.5 hPa | 0 mm | - | 195 W/m² | - |
| 1787507190 | 21.11° C | 61% | 1025.4 hPa | 0 mm | - | 143 W/m² | - |
| 1787506885 | 21.11° C | 62% | 1025.4 hPa | 0 mm | - | 154 W/m² | - |
| 1787506581 | 20° C | 65% | 1025.4 hPa | 0 mm | - | 164 W/m² | - |
| 1787506277 | 20° C | 65% | 1025.6 hPa | 0 mm | - | 182 W/m² | - |
| 1787505973 | 20.56° C | 65% | 1025.4 hPa | 0 mm | - | 185 W/m² | - |
| 1787505668 | 20° C | 67% | 1025.4 hPa | 0 mm | - | 162 W/m² | - |
| 1787505363 | 19.44° C | 68% | 1025.4 hPa | 0 mm | - | 133 W/m² | - |
| 1787505058 | 20° C | 67% | 1025.5 hPa | 0 mm | - | 134 W/m² | - |
| 1787504753 | 20° C | 67% | 1025.4 hPa | 0 mm | - | 134 W/m² | - |
| 1787504449 | 20° C | 67% | 1025.2 hPa | 0 mm | - | 131 W/m² | - |
| 1787504144 | 19.44° C | 68% | 1025.6 hPa | 0 mm | - | 125 W/m² | - |
| 1787503839 | 19.44° C | 69% | 1025.4 hPa | 0 mm | - | 125 W/m² | - |
| 1787503534 | 18.89° C | 70% | 1025.7 hPa | 0 mm | - | 135 W/m² | - |
| 1787503232 | 18.33° C | 71% | 1025.4 hPa | 0 mm | - | 119 W/m² | - |
| 1787502926 | 18.33° C | 72% | 1025.3 hPa | 0 mm | - | 107 W/m² | - |
| 1787502622 | 18.33° C | 71% | 1025.4 hPa | 0 mm | - | 98 W/m² | - |
| 1787502321 | 18.33° C | 72% | 1025.3 hPa | 0 mm | - | 95 W/m² | - |
* Rain latest hour (hover to see other rain measurements)
** Current wind speed in m/s (hover to see current wind gust speed)